Time;durP1;ratioP1;P1;durP2;ratioP2;P2;SDS_P1;SDS_P2;PMS_P1;PMS_P2;Temp;Humidity;BMP_temperature;BMP_pressure;BME280_temperature;BME280_humidity;BME280_pressure;Samples;Min_cycle;Max_cycle;Signal;HPM_P1;HPM_P2
2023/07/21 00:02:25;;;;;;;1.58;0.55;;;21.90;41.00;;;;;;2292933;55;20964;-64
2023/07/21 00:04:52;;;;;;;1.23;0.50;;;21.80;41.10;;;;;;2292916;55;20908;-64
2023/07/21 00:07:20;;;;;;;1.20;0.47;;;21.80;41.20;;;;;;2278659;55;21057;-64
2023/07/21 00:09:46;;;;;;;1.27;0.40;;;21.80;41.20;;;;;;2522850;54;20932;-65
2023/07/21 00:12:14;;;;;;;0.90;0.40;;;21.80;41.30;;;;;;2292924;55;20909;-64
2023/07/21 00:14:41;;;;;;;1.33;0.50;;;21.80;41.30;;;;;;2528418;54;20892;-64
2023/07/21 00:17:08;;;;;;;1.50;0.47;;;21.80;41.40;;;;;;2293690;55;20928;-66
2023/07/21 00:19:37;;;;;;;1.70;0.50;;;21.80;41.50;;;;;;2291128;55;20977;-65
2023/07/21 00:22:05;;;;;;;0.55;0.30;;;21.80;41.50;;;;;;2292777;55;20912;-67
2023/07/21 00:24:34;;;;;;;1.75;0.45;;;21.80;41.50;;;;;;2292384;55;20920;-65
2023/07/21 00:27:02;;;;;;;1.65;0.57;;;21.80;41.50;;;;;;2511153;54;21140;-66
2023/07/21 00:29:29;;;;;;;1.02;0.50;;;21.80;41.40;;;;;;2499124;54;20966;-66
2023/07/21 00:31:55;;;;;;;1.17;0.50;;;21.70;41.30;;;;;;2527874;54;21868;-68
2023/07/21 00:34:24;;;;;;;0.95;0.40;;;21.70;41.40;;;;;;2293355;55;20968;-64
2023/07/21 00:36:57;;;;;;;1.08;0.35;;;21.70;41.50;;;;;;2520300;54;21033;-64
2023/07/21 00:39:23;;;;;;;0.82;0.30;;;21.70;41.60;;;;;;2270323;55;21004;-64
2023/07/21 00:41:51;;;;;;;1.08;0.43;;;21.60;41.40;;;;;;2281334;55;20990;-64
2023/07/21 00:44:17;;;;;;;1.15;0.40;;;21.60;41.50;;;;;;2516354;54;21354;-67
2023/07/21 00:46:43;;;;;;;0.82;0.40;;;21.60;41.50;;;;;;2528367;54;20940;-64
2023/07/21 00:49:09;;;;;;;1.48;0.57;;;21.60;41.50;;;;;;2528509;54;21458;-64
2023/07/21 00:51:37;;;;;;;3.08;0.88;;;21.60;41.50;;;;;;2293185;55;20948;-65
2023/07/21 00:54:03;;;;;;;1.05;0.40;;;21.50;41.80;;;;;;2527886;54;20972;-66
2023/07/21 00:56:29;;;;;;;0.90;0.32;;;21.50;42.00;;;;;;2293306;55;20924;-66
2023/07/21 00:58:56;;;;;;;1.40;0.60;;;21.50;42.10;;;;;;2527647;54;20976;-64
2023/07/21 01:01:23;;;;;;;1.50;0.50;;;21.50;42.30;;;;;;2528220;54;20928;-66
2023/07/21 01:03:49;;;;;;;1.55;0.60;;;21.50;42.20;;;;;;2293433;55;21041;-67
2023/07/21 01:06:17;;;;;;;1.50;0.52;;;21.40;42.20;;;;;;2292969;55;20980;-64
2023/07/21 01:08:43;;;;;;;1.17;0.40;;;21.40;42.20;;;;;;2528731;54;20904;-65
2023/07/21 01:11:10;;;;;;;1.98;0.70;;;21.40;42.20;;;;;;2294293;55;20936;-66
2023/07/21 01:13:37;;;;;;;0.98;0.40;;;21.40;42.20;;;;;;2528347;54;20912;-64
2023/07/21 01:16:04;;;;;;;1.37;0.52;;;21.40;42.20;;;;;;2292851;55;21110;-64
2023/07/21 01:18:30;;;;;;;1.17;0.40;;;21.40;42.20;;;;;;2292087;55;21632;-66
2023/07/21 01:20:57;;;;;;;1.08;0.40;;;21.40;42.40;;;;;;2292399;55;20960;-64
2023/07/21 01:23:42;;;;;;;1.10;0.50;;;21.40;42.40;;;;;;2528002;54;20948;-68
2023/07/21 01:26:09;;;;;;;1.30;0.50;;;21.30;42.60;;;;;;2293432;55;20913;-65
2023/07/21 01:28:35;;;;;;;1.92;0.60;;;21.30;42.40;;;;;;2528348;54;20912;-64
2023/07/21 01:31:02;;;;;;;1.10;0.50;;;21.30;42.50;;;;;;2282658;55;21495;-65
2023/07/21 01:33:28;;;;;;;1.62;0.50;;;21.30;42.50;;;;;;2285146;55;20904;-64
2023/07/21 01:35:55;;;;;;;1.12;0.50;;;21.30;42.50;;;;;;2528628;54;21004;-66
2023/07/21 01:38:22;;;;;;;1.00;0.50;;;21.20;42.30;;;;;;2513315;54;21745;-65
2023/07/21 01:40:49;;;;;;;1.35;0.50;;;21.20;42.30;;;;;;2516642;54;20912;-64
2023/07/21 01:43:15;;;;;;;2.22;0.65;;;21.20;42.30;;;;;;2527934;54;20888;-64
2023/07/21 01:45:42;;;;;;;1.98;0.47;;;21.20;42.30;;;;;;2292395;55;21015;-67
2023/07/21 01:48:09;;;;;;;1.17;0.43;;;21.20;42.30;;;;;;2292696;55;20980;-64
2023/07/21 01:50:36;;;;;;;1.95;0.60;;;21.10;42.20;;;;;;2527504;54;21394;-66
2023/07/21 01:53:06;;;;;;;1.10;0.52;;;21.10;42.40;;;;;;2293157;55;21834;-67
2023/07/21 01:55:37;;;;;;;1.80;0.57;;;21.10;42.50;;;;;;2527805;54;20951;-66
2023/07/21 01:58:05;;;;;;;2.37;0.57;;;21.10;42.60;;;;;;2528406;54;21000;-67
2023/07/21 02:00:34;;;;;;;1.55;0.60;;;21.00;42.50;;;;;;2527935;54;20987;-64
2023/07/21 02:03:07;;;;;;;1.83;0.70;;;21.00;42.80;;;;;;2292841;55;20924;-65
2023/07/21 02:05:34;;;;;;;1.83;0.65;;;21.00;42.90;;;;;;2292653;55;20936;-68
2023/07/21 02:08:00;;;;;;;2.83;0.70;;;21.00;43.00;;;;;;2528217;54;21795;-66
2023/07/21 02:10:26;;;;;;;1.92;0.68;;;21.00;43.10;;;;;;2528260;54;21000;-64
2023/07/21 02:12:53;;;;;;;1.70;0.80;;;20.90;43.10;;;;;;2291890;55;21457;-64
2023/07/21 02:15:19;;;;;;;1.45;0.55;;;20.90;43.30;;;;;;2528299;54;20976;-64
2023/07/21 02:17:45;;;;;;;2.35;0.70;;;20.90;43.40;;;;;;2292783;55;20904;-65
2023/07/21 02:20:14;;;;;;;1.55;0.70;;;20.90;43.50;;;;;;2528394;54;20969;-68
2023/07/21 02:22:43;;;;;;;1.77;0.75;;;20.90;44.20;;;;;;2528226;54;20932;-65
2023/07/21 02:25:09;;;;;;;1.70;0.60;;;20.90;43.70;;;;;;2293099;55;20920;-64
2023/07/21 02:27:35;;;;;;;1.30;0.57;;;20.90;43.70;;;;;;2292429;55;20929;-68
2023/07/21 02:30:03;;;;;;;3.00;0.60;;;20.90;43.80;;;;;;2527896;54;20937;-67
2023/07/21 02:32:29;;;;;;;2.33;0.70;;;20.90;44.00;;;;;;2527518;54;21386;-64
2023/07/21 02:34:58;;;;;;;1.40;0.60;;;20.90;44.00;;;;;;2526698;54;21324;-66
2023/07/21 02:37:25;;;;;;;2.10;0.70;;;20.90;44.00;;;;;;2527187;54;20924;-64
2023/07/21 02:39:52;;;;;;;1.62;0.70;;;20.90;44.00;;;;;;2292722;56;20936;-66
2023/07/21 02:42:18;;;;;;;1.55;0.60;;;20.80;44.10;;;;;;2285793;55;21013;-64
2023/07/21 02:44:45;;;;;;;1.77;0.80;;;20.80;44.20;;;;;;2509232;54;20985;-68
2023/07/21 02:47:12;;;;;;;1.60;0.70;;;20.80;44.20;;;;;;2506198;54;21358;-64
2023/07/21 02:49:40;;;;;;;1.35;0.50;;;20.80;44.20;;;;;;2286952;55;21072;-64
2023/07/21 02:52:06;;;;;;;1.67;0.73;;;20.80;44.30;;;;;;2512645;54;20909;-67
2023/07/21 02:54:33;;;;;;;1.52;0.60;;;20.80;44.40;;;;;;2292309;55;21004;-68
2023/07/21 02:56:59;;;;;;;1.23;0.60;;;20.70;44.40;;;;;;2292338;55;21718;-64
2023/07/21 02:59:26;;;;;;;1.83;0.70;;;20.70;44.50;;;;;;2528478;54;20928;-65
2023/07/21 03:01:56;;;;;;;1.42;0.90;;;20.70;44.60;;;;;;2528522;54;20965;-66
2023/07/21 03:04:28;;;;;;;2.22;0.75;;;20.70;44.70;;;;;;2292756;55;21496;-64
2023/07/21 03:06:54;;;;;;;1.98;0.60;;;20.60;44.60;;;;;;2292942;55;20984;-66
2023/07/21 03:09:21;;;;;;;1.45;0.60;;;20.60;44.60;;;;;;2528737;54;21067;-67
2023/07/21 03:11:48;;;;;;;1.70;0.60;;;20.60;44.70;;;;;;2292417;55;20969;-66
2023/07/21 03:14:14;;;;;;;1.62;0.70;;;20.60;44.70;;;;;;2528071;54;21831;-69
2023/07/21 03:16:41;;;;;;;1.90;0.65;;;20.50;44.60;;;;;;2292889;55;21019;-66
2023/07/21 03:19:08;;;;;;;1.90;0.80;;;20.50;44.70;;;;;;2293396;55;21071;-67
2023/07/21 03:21:34;;;;;;;1.98;0.73;;;20.50;44.70;;;;;;2289408;55;21046;-66
2023/07/21 03:24:00;;;;;;;1.58;0.70;;;20.40;44.70;;;;;;2510790;54;20936;-69
2023/07/21 03:26:27;;;;;;;2.00;0.73;;;20.40;44.70;;;;;;2513826;54;21018;-66
2023/07/21 03:28:55;;;;;;;1.77;0.80;;;20.40;44.80;;;;;;2282709;55;21008;-69
2023/07/21 03:31:21;;;;;;;2.47;0.90;;;20.40;44.90;;;;;;2502190;54;20928;-67
2023/07/21 03:33:48;;;;;;;1.58;0.60;;;20.30;44.90;;;;;;2293639;55;21428;-67
2023/07/21 03:36:16;;;;;;;1.73;0.60;;;20.30;45.00;;;;;;2292160;55;20921;-66
2023/07/21 03:38:45;;;;;;;2.87;0.98;;;20.20;44.90;;;;;;2528006;54;20951;-68
2023/07/21 03:41:11;;;;;;;1.70;0.70;;;20.20;45.00;;;;;;2527030;54;20951;-68
2023/07/21 03:43:38;;;;;;;2.08;0.90;;;20.20;45.10;;;;;;2528201;54;20972;-68
2023/07/21 03:46:05;;;;;;;2.40;0.90;;;20.20;45.20;;;;;;2528477;54;20916;-66
2023/07/21 03:48:32;;;;;;;2.05;0.70;;;20.10;45.10;;;;;;2527510;54;20992;-66
2023/07/21 03:51:02;;;;;;;1.85;0.80;;;20.10;45.20;;;;;;2528065;54;20932;-66
2023/07/21 03:53:29;;;;;;;1.73;0.80;;;20.10;45.30;;;;;;2292719;55;21358;-67
2023/07/21 03:56:00;;;;;;;1.08;0.47;;;20.10;45.30;;;;;;2292371;55;20964;-68
2023/07/21 03:58:26;;;;;;;2.65;0.90;;;20.00;45.30;;;;;;2292749;55;21753;-70
2023/07/21 04:00:53;;;;;;;1.62;0.70;;;20.00;45.30;;;;;;2528165;54;21028;-67
2023/07/21 04:03:24;;;;;;;2.03;0.77;;;20.00;45.30;;;;;;2246515;55;2849448;-70
2023/07/21 04:05:52;;;;;;;1.17;0.60;;;20.00;45.50;;;;;;2527786;54;20964;-68
2023/07/21 04:08:19;;;;;;;1.58;0.60;;;19.90;45.40;;;;;;2292886;55;20925;-66
2023/07/21 04:10:45;;;;;;;2.20;0.95;;;19.90;45.40;;;;;;2293650;55;21004;-66
2023/07/21 04:13:12;;;;;;;2.60;0.70;;;19.90;45.60;;;;;;2526256;54;20992;-66
2023/07/21 04:15:38;;;;;;;1.73;0.70;;;19.90;45.70;;;;;;2528111;54;21004;-70
2023/07/21 04:18:08;;;;;;;1.67;0.70;;;19.80;45.70;;;;;;2274420;55;21079;-66
2023/07/21 04:20:35;;;;;;;1.70;0.70;;;19.80;45.80;;;;;;2292737;55;20988;-66
2023/07/21 04:23:02;;;;;;;2.10;0.70;;;19.80;46.00;;;;;;2272946;55;21058;-66
2023/07/21 04:25:28;;;;;;;1.17;0.52;;;19.80;46.10;;;;;;2291305;55;20940;-66
2023/07/21 04:27:55;;;;;;;1.62;0.60;;;19.80;46.20;;;;;;2292211;55;20960;-66
2023/07/21 04:30:22;;;;;;;1.77;0.62;;;19.80;46.20;;;;;;2292362;55;20916;-66
2023/07/21 04:32:48;;;;;;;2.10;0.80;;;19.80;46.40;;;;;;2519036;54;22047;-69
2023/07/21 04:35:16;;;;;;;1.20;0.60;;;19.70;46.30;;;;;;2518098;54;21116;-66
2023/07/21 04:37:43;;;;;;;1.40;0.60;;;19.80;46.40;;;;;;2280259;55;20945;-66
2023/07/21 04:40:11;;;;;;;1.67;0.70;;;19.80;46.50;;;;;;2528516;54;20960;-66
2023/07/21 04:42:37;;;;;;;2.17;0.70;;;19.80;46.60;;;;;;2525665;54;20953;-66
2023/07/21 04:45:04;;;;;;;2.10;0.70;;;19.70;46.50;;;;;;2292040;55;21752;-66
2023/07/21 04:47:31;;;;;;;2.05;0.77;;;19.80;46.60;;;;;;2293019;55;20948;-68
2023/07/21 04:49:58;;;;;;;1.75;0.60;;;19.70;46.50;;;;;;2528670;54;21493;-68
2023/07/21 04:52:24;;;;;;;2.33;0.60;;;19.80;46.60;;;;;;2528436;54;20927;-66
2023/07/21 04:54:50;;;;;;;1.40;0.52;;;19.80;46.60;;;;;;2528304;54;21032;-67
2023/07/21 04:57:17;;;;;;;1.77;0.80;;;19.80;46.60;;;;;;2293958;55;21318;-67
2023/07/21 04:59:44;;;;;;;2.97;0.80;;;19.70;46.70;;;;;;2502967;54;20953;-66
2023/07/21 05:02:11;;;;;;;2.10;0.90;;;19.70;46.70;;;;;;2290752;55;21367;-67
2023/07/21 05:04:38;;;;;;;2.45;0.65;;;19.70;46.80;;;;;;2526779;54;21000;-66
2023/07/21 05:07:05;;;;;;;2.67;1.05;;;19.80;47.00;;;;;;2528820;54;21020;-68
2023/07/21 05:09:31;;;;;;;1.35;0.60;;;19.70;47.00;;;;;;2292863;55;21374;-67
2023/07/21 05:12:02;;;;;;;1.58;0.60;;;19.80;47.10;;;;;;2292984;55;20993;-66
2023/07/21 05:14:30;;;;;;;2.87;0.70;;;19.80;47.20;;;;;;2292924;55;21509;-67
2023/07/21 05:16:56;;;;;;;2.67;0.68;;;19.80;47.20;;;;;;2528264;54;20924;-69
2023/07/21 05:19:23;;;;;;;1.65;0.70;;;19.80;47.30;;;;;;2292784;55;21449;-66
2023/07/21 05:21:49;;;;;;;1.45;0.68;;;19.80;47.40;;;;;;2528223;54;20924;-67
2023/07/21 05:24:17;;;;;;;2.15;0.73;;;19.90;47.50;;;;;;2528345;54;20976;-69
2023/07/21 05:26:46;;;;;;;1.52;0.60;;;19.90;47.50;;;;;;2279216;55;20946;-66
2023/07/21 05:29:12;;;;;;;2.40;0.70;;;19.90;47.40;;;;;;2525180;54;20924;-66
2023/07/21 05:31:39;;;;;;;1.05;0.40;;;19.90;47.40;;;;;;2292568;55;20984;-67
2023/07/21 05:34:07;;;;;;;1.15;0.43;;;19.90;48.00;;;;;;2293522;55;20944;-65
2023/07/21 05:36:34;;;;;;;1.62;0.60;;;20.00;47.40;;;;;;2292815;56;21904;-67
2023/07/21 05:39:01;;;;;;;1.48;0.60;;;20.00;47.40;;;;;;2293168;55;20940;-66
2023/07/21 05:41:27;;;;;;;2.47;0.80;;;20.00;47.50;;;;;;2290818;55;21451;-69
2023/07/21 05:43:58;;;;;;;1.95;0.68;;;20.10;47.60;;;;;;2507241;54;21663;-66
2023/07/21 05:46:25;;;;;;;1.67;0.70;;;20.10;47.60;;;;;;2275361;55;20945;-68
2023/07/21 05:48:52;;;;;;;1.95;0.73;;;20.10;47.70;;;;;;2292081;55;20908;-66
2023/07/21 05:51:18;;;;;;;1.80;0.70;;;20.20;47.90;;;;;;2499602;54;20993;-67
2023/07/21 05:53:45;;;;;;;2.45;0.62;;;20.20;48.00;;;;;;2273352;55;20961;-66
2023/07/21 05:56:12;;;;;;;1.90;0.70;;;20.30;48.10;;;;;;2528066;54;20996;-67
2023/07/21 05:58:38;;;;;;;1.83;0.62;;;20.30;48.10;;;;;;2294863;55;21022;-66
2023/07/21 06:01:05;;;;;;;2.10;0.80;;;20.30;48.10;;;;;;2270924;55;20979;-67
2023/07/21 06:03:31;;;;;;;2.20;1.00;;;20.40;48.20;;;;;;2292620;55;20937;-66
2023/07/21 06:05:58;;;;;;;1.90;0.82;;;20.40;48.10;;;;;;2292713;56;20960;-67
2023/07/21 06:08:24;;;;;;;1.60;0.70;;;20.50;48.10;;;;;;2292531;55;20931;-68
2023/07/21 06:10:54;;;;;;;2.03;0.90;;;20.50;48.10;;;;;;2527848;54;22160;-67
2023/07/21 06:13:20;;;;;;;2.30;0.70;;;20.60;48.30;;;;;;2527076;54;20928;-66
2023/07/21 06:15:47;;;;;;;2.80;1.00;;;20.60;48.30;;;;;;2290681;56;21020;-68
2023/07/21 06:18:13;;;;;;;1.90;0.70;;;20.70;48.40;;;;;;2292759;55;20960;-70
2023/07/21 06:20:39;;;;;;;1.50;0.70;;;20.70;48.30;;;;;;2290178;55;20959;-64
2023/07/21 06:23:06;;;;;;;2.12;0.80;;;20.80;48.40;;;;;;2293076;55;20912;-64
2023/07/21 06:25:32;;;;;;;2.03;0.90;;;20.90;48.70;;;;;;2528077;54;21499;-64
2023/07/21 06:28:00;;;;;;;2.67;1.00;;;20.90;48.70;;;;;;2293025;55;20980;-66
2023/07/21 06:30:26;;;;;;;2.30;0.60;;;21.00;49.20;;;;;;2293143;55;20943;-65
2023/07/21 06:32:52;;;;;;;2.20;0.90;;;21.00;48.40;;;;;;2293030;55;20988;-64
2023/07/21 06:35:19;;;;;;;1.75;0.70;;;21.20;48.60;;;;;;2292854;56;21500;-67
2023/07/21 06:37:45;;;;;;;3.50;0.93;;;21.20;48.40;;;;;;2527679;54;21373;-64
2023/07/21 06:40:12;;;;;;;2.37;0.80;;;21.30;48.50;;;;;;2292857;55;20920;-64
2023/07/21 06:42:43;;;;;;;1.90;0.70;;;21.40;48.50;;;;;;2292223;55;20953;-65
2023/07/21 06:45:10;;;;;;;2.10;1.00;;;21.50;48.50;;;;;;2292784;55;20932;-67
2023/07/21 06:47:37;;;;;;;1.98;0.70;;;21.60;48.40;;;;;;2520311;54;20985;-64
2023/07/21 06:50:07;;;;;;;1.87;0.70;;;21.70;48.10;;;;;;2508808;54;20936;-64
2023/07/21 06:52:34;;;;;;;1.75;0.77;;;21.80;47.80;;;;;;2527885;54;20933;-64
2023/07/21 06:55:01;;;;;;;1.42;0.68;;;21.90;47.80;;;;;;2292690;56;21088;-63
2023/07/21 06:57:28;;;;;;;1.75;0.70;;;22.00;47.60;;;;;;2292659;55;20956;-64
2023/07/21 06:59:55;;;;;;;2.62;0.70;;;22.10;47.50;;;;;;2292946;55;20924;-64
2023/07/21 07:02:21;;;;;;;1.45;0.60;;;22.20;47.40;;;;;;2528337;54;20980;-64
2023/07/21 07:04:48;;;;;;;2.08;0.80;;;22.20;47.20;;;;;;2527712;54;20994;-64
2023/07/21 07:07:18;;;;;;;2.95;1.00;;;22.30;47.00;;;;;;2292902;55;20952;-64
2023/07/21 07:09:44;;;;;;;4.03;0.80;;;22.40;46.90;;;;;;2291155;55;20968;-64
2023/07/21 07:12:10;;;;;;;2.20;1.00;;;22.50;46.80;;;;;;2292873;56;21059;-68
2023/07/21 07:14:39;;;;;;;2.35;0.90;;;22.60;46.60;;;;;;2527560;54;21068;-66
2023/07/21 07:17:05;;;;;;;1.98;0.82;;;22.70;46.50;;;;;;2292589;55;20984;-65
2023/07/21 07:19:33;;;;;;;2.53;0.70;;;22.70;46.40;;;;;;2292420;55;20928;-68
2023/07/21 07:21:59;;;;;;;2.05;0.85;;;22.80;46.40;;;;;;2526887;54;21402;-65
2023/07/21 07:24:26;;;;;;;2.37;0.73;;;22.90;46.40;;;;;;2293048;55;20909;-67
2023/07/21 07:26:54;;;;;;;2.85;1.00;;;23.00;46.40;;;;;;2527691;54;21003;-64
2023/07/21 07:29:20;;;;;;;1.87;0.80;;;23.00;46.30;;;;;;2527083;54;20932;-65
2023/07/21 07:31:47;;;;;;;2.70;0.80;;;23.10;46.30;;;;;;2292568;55;20948;-64
2023/07/21 07:34:13;;;;;;;1.92;0.80;;;23.10;46.30;;;;;;2527883;54;20940;-64
2023/07/21 07:36:40;;;;;;;2.62;1.00;;;23.20;46.30;;;;;;2527587;54;21080;-66
2023/07/21 07:39:07;;;;;;;1.90;0.70;;;23.30;46.40;;;;;;2528372;54;20952;-66
2023/07/21 07:41:33;;;;;;;1.95;0.80;;;23.40;46.50;;;;;;2289694;55;21018;-64
2023/07/21 07:44:00;;;;;;;2.67;1.02;;;23.40;46.30;;;;;;2270127;55;21911;-65
2023/07/21 07:46:26;;;;;;;1.70;0.80;;;23.50;46.60;;;;;;2291481;55;20908;-65
2023/07/21 07:48:54;;;;;;;3.58;1.10;;;23.60;46.70;;;;;;2527298;54;21864;-64
2023/07/21 07:51:22;;;;;;;2.08;0.90;;;23.60;46.60;;;;;;2292923;55;20940;-64
2023/07/21 07:53:48;;;;;;;2.75;1.02;;;23.70;46.50;;;;;;2527650;54;20976;-64
2023/07/21 07:56:17;;;;;;;2.45;0.80;;;23.80;46.50;;;;;;2292951;55;20960;-65
2023/07/21 07:58:43;;;;;;;2.00;0.80;;;23.90;46.50;;;;;;2520476;54;20982;-64
2023/07/21 08:01:13;;;;;;;2.22;0.80;;;24.00;46.50;;;;;;2496254;55;20961;-65
2023/07/21 08:03:43;;;;;;;1.52;0.73;;;24.10;46.30;;;;;;2288727;55;22181;-67
2023/07/21 08:06:12;;;;;;;4.68;0.77;;;24.10;46.00;;;;;;2528836;54;20908;-64
2023/07/21 08:08:38;;;;;;;4.10;0.90;;;24.20;45.90;;;;;;2292264;55;21364;-68
2023/07/21 08:11:06;;;;;;;2.65;1.10;;;24.30;45.70;;;;;;2293254;56;20952;-67
2023/07/21 08:13:32;;;;;;;1.70;0.70;;;24.40;45.80;;;;;;2293030;55;20994;-65
2023/07/21 08:15:59;;;;;;;2.12;0.90;;;24.40;45.80;;;;;;2280018;55;20914;-68
2023/07/21 08:18:25;;;;;;;2.12;0.80;;;24.50;45.80;;;;;;2511931;54;21058;-64
2023/07/21 08:20:52;;;;;;;2.70;0.98;;;24.60;45.90;;;;;;2291846;55;20893;-64
2023/07/21 08:23:18;;;;;;;1.70;0.70;;;24.70;46.30;;;;;;2293485;55;21378;-65
2023/07/21 08:25:49;;;;;;;1.90;0.75;;;24.80;45.40;;;;;;2528146;54;21302;-66
2023/07/21 08:28:16;;;;;;;1.83;0.73;;;24.80;45.30;;;;;;2528119;54;20945;-65
2023/07/21 08:30:43;;;;;;;3.72;0.80;;;24.90;45.30;;;;;;2521580;54;21038;-67
2023/07/21 08:33:17;;;;;;;1.27;0.60;;;25.00;45.00;;;;;;2278537;55;20924;-66
2023/07/21 08:35:43;;;;;;;3.12;0.80;;;25.00;44.70;;;;;;2527676;54;21402;-65
2023/07/21 08:38:11;;;;;;;2.80;0.82;;;25.10;44.60;;;;;;2293820;55;20916;-68
2023/07/21 08:40:38;;;;;;;2.12;0.82;;;25.20;44.60;;;;;;2528089;54;20964;-66
2023/07/21 08:43:06;;;;;;;2.33;0.60;;;25.20;44.30;;;;;;2293556;55;21053;-65
2023/07/21 08:45:33;;;;;;;1.92;0.75;;;25.30;44.20;;;;;;2275072;55;20912;-67
2023/07/21 08:48:06;;;;;;;1.55;0.60;;;25.30;43.90;;;;;;2527191;54;21057;-65
2023/07/21 08:50:33;;;;;;;1.90;0.90;;;25.40;43.90;;;;;;2293260;55;20992;-65
2023/07/21 08:53:00;;;;;;;1.85;0.85;;;25.50;43.90;;;;;;2292654;55;21705;-67
2023/07/21 08:55:27;;;;;;;1.60;0.70;;;25.50;43.80;;;;;;2528364;54;21019;-64
2023/07/21 08:58:04;;;;;;;1.58;0.75;;;25.60;43.60;;;;;;2527302;54;21060;-69
2023/07/21 09:00:31;;;;;;;1.92;0.70;;;25.70;43.50;;;;;;2292785;55;21781;-65
2023/07/21 09:03:02;;;;;;;2.42;0.75;;;25.70;43.50;;;;;;2528169;54;20924;-65
2023/07/21 09:05:29;;;;;;;2.08;0.80;;;25.80;43.70;;;;;;2292997;55;21001;-65
2023/07/21 09:07:56;;;;;;;1.75;0.60;;;25.90;42.80;;;;;;2292701;55;20941;-65
2023/07/21 09:10:33;;;;;;;1.58;0.60;;;25.90;42.50;;;;;;2288627;55;21017;-66
2023/07/21 09:13:00;;;;;;;1.70;0.57;;;26.00;41.90;;;;;;2279804;55;20952;-68
2023/07/21 09:15:26;;;;;;;2.70;0.80;;;26.00;42.30;;;;;;2293117;55;20991;-65
2023/07/21 09:17:53;;;;;;;2.10;0.60;;;26.10;42.10;;;;;;2527176;54;21493;-65
2023/07/21 09:20:19;;;;;;;1.27;0.50;;;26.10;42.00;;;;;;2279564;55;21049;-67
2023/07/21 09:22:48;;;;;;;1.50;0.60;;;26.20;41.90;;;;;;2522142;54;20938;-67
2023/07/21 09:25:21;;;;;;;1.85;0.68;;;26.30;41.80;;;;;;2501244;54;21780;-65
2023/07/21 09:27:57;;;;;;;1.25;0.45;;;26.30;41.20;;;;;;2527432;54;20960;-65
2023/07/21 09:30:27;;;;;;;3.20;1.08;;;26.40;40.90;;;;;;2293468;55;20979;-68
2023/07/21 09:32:55;;;;;;;1.23;0.55;;;26.40;41.10;;;;;;2526742;54;20889;-67
2023/07/21 09:35:22;;;;;;;1.23;0.55;;;26.50;41.00;;;;;;2293134;55;20923;-68
2023/07/21 09:37:50;;;;;;;2.00;0.70;;;26.50;40.90;;;;;;2292725;55;21000;-65
2023/07/21 09:40:17;;;;;;;4.65;0.73;;;26.50;40.70;;;;;;2528195;54;20930;-65
2023/07/21 09:42:43;;;;;;;1.90;0.60;;;26.60;40.70;;;;;;2292649;55;20978;-65
2023/07/21 09:45:10;;;;;;;1.58;0.60;;;26.60;40.60;;;;;;2528027;54;21099;-65
2023/07/21 09:47:39;;;;;;;1.73;0.68;;;26.60;40.50;;;;;;2526862;54;21023;-67
2023/07/21 09:50:09;;;;;;;1.90;0.70;;;26.70;40.30;;;;;;2292718;55;20904;-67
2023/07/21 09:52:37;;;;;;;1.87;0.70;;;26.70;40.30;;;;;;2527382;54;20968;-64
2023/07/21 09:55:13;;;;;;;1.87;0.68;;;26.70;40.30;;;;;;2527836;54;20940;-64
2023/07/21 09:57:46;;;;;;;1.42;0.65;;;26.70;40.10;;;;;;2528253;54;20976;-67
2023/07/21 10:00:14;;;;;;;1.83;0.80;;;26.80;40.10;;;;;;2293095;55;20941;-66
2023/07/21 10:02:45;;;;;;;1.33;0.57;;;26.80;40.30;;;;;;2503367;54;21021;-65
2023/07/21 10:05:11;;;;;;;1.48;0.60;;;26.90;40.20;;;;;;2291673;55;21036;-66
2023/07/21 10:07:39;;;;;;;1.85;0.80;;;26.90;40.10;;;;;;2292824;55;20975;-65
2023/07/21 10:10:06;;;;;;;2.55;1.12;;;26.90;40.00;;;;;;2292695;55;21004;-65
2023/07/21 10:13:33;;;;;;;1.42;0.57;;;27.00;39.80;;;;;;2527331;54;20944;-66
2023/07/21 10:16:01;;;;;;;1.75;0.70;;;27.00;39.40;;;;;;2526676;54;20896;-69
2023/07/21 10:18:29;;;;;;;1.70;0.55;;;27.10;40.00;;;;;;2519961;54;20942;-66
2023/07/21 10:20:56;;;;;;;1.48;0.68;;;27.10;39.90;;;;;;2277157;55;21514;-66
2023/07/21 10:23:38;;;;;;;1.98;0.90;;;27.20;39.80;;;;;;2527750;54;21040;-66
2023/07/21 10:26:11;;;;;;;2.92;0.77;;;27.20;39.20;;;;;;2292819;55;20909;-67
2023/07/21 10:28:42;;;;;;;1.37;0.50;;;27.20;39.40;;;;;;2292456;55;21027;-66
2023/07/21 10:33:21;;;;;;;1.85;0.70;;;27.30;39.60;;;;;;2292610;56;20940;-66
2023/07/21 10:35:48;;;;;;;2.37;0.80;;;27.30;39.30;;;;;;2502239;54;20962;-66
2023/07/21 10:38:18;;;;;;;1.85;0.68;;;27.40;39.40;;;;;;2273284;55;21030;-68
2023/07/21 10:40:45;;;;;;;3.83;1.00;;;27.40;39.10;;;;;;2292631;56;21484;-65
2023/07/21 10:43:11;;;;;;;1.90;0.60;;;27.40;39.10;;;;;;2292918;55;21793;-68
2023/07/21 10:45:41;;;;;;;3.83;0.77;;;27.50;39.00;;;;;;2292224;56;21015;-65
2023/07/21 10:48:14;;;;;;;2.17;0.70;;;27.50;38.90;;;;;;2292112;55;20948;-65
2023/07/21 10:50:54;;;;;;;1.52;0.60;;;27.50;38.50;;;;;;2292372;56;21000;-65
2023/07/21 10:53:23;;;;;;;2.92;0.50;;;27.50;38.30;;;;;;2528109;54;21284;-66
2023/07/21 10:55:51;;;;;;;1.42;0.57;;;27.50;38.50;;;;;;2527631;54;21015;-68
2023/07/21 10:58:18;;;;;;;1.67;0.70;;;27.50;38.40;;;;;;2293010;55;21457;-66
2023/07/21 11:00:48;;;;;;;2.00;0.55;;;27.50;38.30;;;;;;2286712;55;21045;-67
2023/07/21 11:03:15;;;;;;;1.60;0.55;;;27.50;38.10;;;;;;2272976;55;20900;-66
2023/07/21 11:05:41;;;;;;;1.77;0.65;;;27.50;38.30;;;;;;2292847;55;20944;-65
2023/07/21 11:08:25;;;;;;;1.48;0.60;;;27.40;38.20;;;;;;2293157;55;21912;-65
2023/07/21 11:10:51;;;;;;;1.92;0.68;;;27.40;38.00;;;;;;2528111;54;21753;-65
2023/07/21 11:13:18;;;;;;;1.40;0.50;;;27.40;38.10;;;;;;2528036;54;21506;-65
2023/07/21 11:15:54;;;;;;;1.83;0.77;;;27.40;38.10;;;;;;2293006;55;20983;-65
2023/07/21 11:18:24;;;;;;;2.05;0.70;;;27.40;37.80;;;;;;2278896;55;21014;-68
2023/07/21 11:20:51;;;;;;;2.75;0.75;;;27.30;38.50;;;;;;2526582;54;21021;-65
2023/07/21 11:23:21;;;;;;;3.25;0.60;;;27.30;38.00;;;;;;2292982;55;20999;-65
2023/07/21 11:26:10;;;;;;;1.95;0.80;;;27.30;38.00;;;;;;2528496;54;21763;-65
2023/07/21 11:28:40;;;;;;;1.90;0.70;;;27.30;37.80;;;;;;2292452;55;20956;-65
2023/07/21 11:31:14;;;;;;;2.60;0.70;;;27.20;37.90;;;;;;2292844;55;20957;-69
2023/07/21 11:33:45;;;;;;;2.58;0.70;;;27.20;37.80;;;;;;2293213;56;20984;-65
2023/07/21 11:36:23;;;;;;;4.37;0.80;;;27.20;37.90;;;;;;2528497;54;21655;-65
2023/07/21 11:39:23;;;;;;;2.87;0.95;;;27.20;37.90;;;;;;2527822;54;20968;-69
2023/07/21 11:41:50;;;;;;;1.23;0.60;;;27.20;37.90;;;;;;2528289;54;20932;-65
2023/07/21 11:44:28;;;;;;;3.70;0.88;;;27.10;38.00;;;;;;2291741;55;20896;-65
2023/07/21 11:47:04;;;;;;;2.00;0.77;;;27.10;37.90;;;;;;2274478;55;20954;-65
2023/07/21 11:49:35;;;;;;;4.18;0.90;;;27.10;37.90;;;;;;2293110;55;20945;-65
2023/07/21 11:52:03;;;;;;;2.42;0.70;;;27.00;37.90;;;;;;2292655;55;20945;-64
2023/07/21 11:54:38;;;;;;;2.00;0.77;;;27.00;37.90;;;;;;2528015;54;20932;-65
2023/07/21 11:57:04;;;;;;;2.42;0.90;;;26.90;37.90;;;;;;2292887;55;20904;-64
2023/07/21 11:59:30;;;;;;;2.37;0.80;;;26.90;38.10;;;;;;2528307;54;20949;-64
2023/07/21 12:01:57;;;;;;;1.87;0.70;;;26.80;38.20;;;;;;2293196;55;20920;-64
2023/07/21 12:04:25;;;;;;;2.10;0.65;;;26.70;38.20;;;;;;2292704;55;20964;-67
2023/07/21 12:06:53;;;;;;;2.12;0.82;;;26.70;38.30;;;;;;2273919;55;20932;-67
2023/07/21 12:09:19;;;;;;;2.45;0.95;;;26.70;38.40;;;;;;2292682;55;21655;-67
2023/07/21 12:11:46;;;;;;;2.35;0.80;;;26.70;38.60;;;;;;2528438;54;21036;-64
2023/07/21 12:14:12;;;;;;;3.20;0.60;;;26.60;38.60;;;;;;2292571;55;21714;-65
2023/07/21 12:16:39;;;;;;;1.60;0.62;;;26.50;38.60;;;;;;2527530;54;20924;-65
2023/07/21 12:19:06;;;;;;;2.55;0.90;;;26.50;38.90;;;;;;2292313;55;20932;-64
2023/07/21 12:21:34;;;;;;;1.67;0.70;;;26.50;39.20;;;;;;2292948;55;21940;-64
2023/07/21 12:24:04;;;;;;;1.70;0.73;;;26.50;39.30;;;;;;2292898;55;21540;-65
2023/07/21 12:26:32;;;;;;;1.70;0.60;;;26.50;39.30;;;;;;2528596;54;20956;-64
2023/07/21 12:28:58;;;;;;;1.50;0.60;;;26.60;39.50;;;;;;2528003;54;21835;-64
2023/07/21 12:31:26;;;;;;;2.83;0.88;;;26.60;39.50;;;;;;2293523;55;21879;-64
2023/07/21 12:33:53;;;;;;;1.87;0.65;;;26.50;39.50;;;;;;2292178;55;20987;-64
2023/07/21 12:36:22;;;;;;;1.17;0.50;;;26.50;39.60;;;;;;2527675;54;20951;-64
2023/07/21 12:38:48;;;;;;;1.80;0.70;;;26.50;39.50;;;;;;2292647;55;21690;-64
2023/07/21 12:41:14;;;;;;;1.75;0.75;;;26.60;39.50;;;;;;2291776;56;21048;-68
2023/07/21 12:43:41;;;;;;;3.95;1.05;;;26.50;39.50;;;;;;2528573;54;21004;-65
2023/07/21 12:46:07;;;;;;;1.85;0.68;;;26.50;39.50;;;;;;2527214;54;21020;-65
2023/07/21 12:48:33;;;;;;;1.77;0.70;;;26.50;39.60;;;;;;2292202;55;20936;-65
2023/07/21 12:51:01;;;;;;;1.70;0.70;;;26.40;39.50;;;;;;2293392;55;20920;-65
2023/07/21 12:53:29;;;;;;;1.92;0.65;;;26.40;39.50;;;;;;2528619;54;21414;-66
2023/07/21 12:55:55;;;;;;;2.58;0.80;;;26.40;39.50;;;;;;2293259;55;20983;-66